sensor_id;sensor_type;location;lat;lon;timestamp;P1;durP1;ratioP1;P2;durP2;ratioP2
1296;SDS011;641;48.492;9.184;2023-04-25T00:01:55;8.87;;;2.67;;
1296;SDS011;641;48.492;9.184;2023-04-25T00:04:21;9.70;;;3.33;;
1296;SDS011;641;48.492;9.184;2023-04-25T00:06:47;7.60;;;2.67;;
1296;SDS011;641;48.492;9.184;2023-04-25T00:09:13;9.40;;;3.10;;
1296;SDS011;641;48.492;9.184;2023-04-25T00:11:39;8.10;;;3.03;;
1296;SDS011;641;48.492;9.184;2023-04-25T00:14:05;8.57;;;3.13;;
1296;SDS011;641;48.492;9.184;2023-04-25T00:16:31;9.00;;;2.60;;
1296;SDS011;641;48.492;9.184;2023-04-25T00:18:59;9.40;;;3.00;;
1296;SDS011;641;48.492;9.184;2023-04-25T00:21:27;8.00;;;2.83;;
1296;SDS011;641;48.492;9.184;2023-04-25T00:23:53;11.20;;;3.70;;
1296;SDS011;641;48.492;9.184;2023-04-25T00:26:19;11.07;;;3.30;;
1296;SDS011;641;48.492;9.184;2023-04-25T00:28:46;11.60;;;2.90;;
1296;SDS011;641;48.492;9.184;2023-04-25T00:31:11;9.20;;;2.60;;
1296;SDS011;641;48.492;9.184;2023-04-25T00:33:37;10.33;;;3.20;;
1296;SDS011;641;48.492;9.184;2023-04-25T00:36:03;10.07;;;3.30;;
1296;SDS011;641;48.492;9.184;2023-04-25T00:38:29;8.43;;;2.70;;
1296;SDS011;641;48.492;9.184;2023-04-25T00:40:54;12.90;;;3.57;;
1296;SDS011;641;48.492;9.184;2023-04-25T00:43:20;10.30;;;3.13;;
1296;SDS011;641;48.492;9.184;2023-04-25T00:45:47;8.50;;;3.10;;
1296;SDS011;641;48.492;9.184;2023-04-25T00:48:13;9.07;;;2.90;;
1296;SDS011;641;48.492;9.184;2023-04-25T00:50:39;10.03;;;3.03;;
1296;SDS011;641;48.492;9.184;2023-04-25T00:53:05;9.40;;;3.03;;
1296;SDS011;641;48.492;9.184;2023-04-25T00:55:31;10.70;;;3.47;;
1296;SDS011;641;48.492;9.184;2023-04-25T00:57:59;8.90;;;2.67;;
1296;SDS011;641;48.492;9.184;2023-04-25T01:00:25;11.33;;;2.80;;
1296;SDS011;641;48.492;9.184;2023-04-25T01:02:51;10.23;;;3.00;;
1296;SDS011;641;48.492;9.184;2023-04-25T01:05:17;8.83;;;3.00;;
1296;SDS011;641;48.492;9.184;2023-04-25T01:07:43;8.93;;;2.93;;
1296;SDS011;641;48.492;9.184;2023-04-25T01:10:09;9.93;;;2.90;;
1296;SDS011;641;48.492;9.184;2023-04-25T01:12:35;8.80;;;3.37;;
1296;SDS011;641;48.492;9.184;2023-04-25T01:15:01;10.53;;;3.23;;
1296;SDS011;641;48.492;9.184;2023-04-25T01:17:27;7.93;;;2.50;;
1296;SDS011;641;48.492;9.184;2023-04-25T01:19:54;8.53;;;2.80;;
1296;SDS011;641;48.492;9.184;2023-04-25T01:22:20;14.73;;;3.40;;
1296;SDS011;641;48.492;9.184;2023-04-25T01:24:45;13.20;;;3.73;;
1296;SDS011;641;48.492;9.184;2023-04-25T01:27:11;9.00;;;3.47;;
1296;SDS011;641;48.492;9.184;2023-04-25T01:29:37;9.50;;;3.03;;
1296;SDS011;641;48.492;9.184;2023-04-25T01:32:03;9.33;;;3.27;;
1296;SDS011;641;48.492;9.184;2023-04-25T01:34:30;8.30;;;3.20;;
1296;SDS011;641;48.492;9.184;2023-04-25T01:36:56;8.50;;;2.93;;
1296;SDS011;641;48.492;9.184;2023-04-25T01:39:23;9.83;;;3.33;;
1296;SDS011;641;48.492;9.184;2023-04-25T01:41:49;11.10;;;3.27;;
1296;SDS011;641;48.492;9.184;2023-04-25T01:44:15;8.17;;;2.83;;
1296;SDS011;641;48.492;9.184;2023-04-25T01:46:41;12.13;;;2.97;;
1296;SDS011;641;48.492;9.184;2023-04-25T01:49:06;9.30;;;2.63;;
1296;SDS011;641;48.492;9.184;2023-04-25T01:51:32;8.30;;;2.67;;
1296;SDS011;641;48.492;9.184;2023-04-25T01:53:58;9.77;;;2.90;;
1296;SDS011;641;48.492;9.184;2023-04-25T01:56:24;11.20;;;2.57;;
1296;SDS011;641;48.492;9.184;2023-04-25T01:58:50;10.93;;;2.90;;
1296;SDS011;641;48.492;9.184;2023-04-25T02:01:16;8.10;;;2.53;;
1296;SDS011;641;48.492;9.184;2023-04-25T02:03:41;11.27;;;3.43;;
1296;SDS011;641;48.492;9.184;2023-04-25T02:06:07;10.30;;;2.73;;
1296;SDS011;641;48.492;9.184;2023-04-25T02:08:33;9.70;;;3.00;;
1296;SDS011;641;48.492;9.184;2023-04-25T02:10:59;8.23;;;2.30;;
1296;SDS011;641;48.492;9.184;2023-04-25T02:13:24;9.50;;;2.60;;
1296;SDS011;641;48.492;9.184;2023-04-25T02:15:50;7.87;;;2.67;;
1296;SDS011;641;48.492;9.184;2023-04-25T02:18:15;7.23;;;2.50;;
1296;SDS011;641;48.492;9.184;2023-04-25T02:20:41;7.60;;;2.10;;
1296;SDS011;641;48.492;9.184;2023-04-25T02:23:07;10.77;;;2.97;;
1296;SDS011;641;48.492;9.184;2023-04-25T02:25:33;7.80;;;2.23;;
1296;SDS011;641;48.492;9.184;2023-04-25T02:27:59;7.80;;;2.20;;
1296;SDS011;641;48.492;9.184;2023-04-25T02:30:24;9.83;;;2.60;;
1296;SDS011;641;48.492;9.184;2023-04-25T02:32:50;10.33;;;2.50;;
1296;SDS011;641;48.492;9.184;2023-04-25T02:35:16;10.03;;;3.17;;
1296;SDS011;641;48.492;9.184;2023-04-25T02:37:41;10.67;;;3.00;;
1296;SDS011;641;48.492;9.184;2023-04-25T02:40:07;9.00;;;2.60;;
1296;SDS011;641;48.492;9.184;2023-04-25T02:42:33;7.83;;;2.50;;
1296;SDS011;641;48.492;9.184;2023-04-25T02:44:59;10.40;;;3.00;;
1296;SDS011;641;48.492;9.184;2023-04-25T02:47:25;11.50;;;2.73;;
1296;SDS011;641;48.492;9.184;2023-04-25T02:49:51;9.27;;;2.20;;
1296;SDS011;641;48.492;9.184;2023-04-25T02:52:16;10.87;;;2.87;;
1296;SDS011;641;48.492;9.184;2023-04-25T02:54:42;10.63;;;2.77;;
1296;SDS011;641;48.492;9.184;2023-04-25T02:57:07;8.40;;;2.57;;
1296;SDS011;641;48.492;9.184;2023-04-25T02:59:33;11.23;;;2.80;;
1296;SDS011;641;48.492;9.184;2023-04-25T03:01:59;12.87;;;3.30;;
1296;SDS011;641;48.492;9.184;2023-04-25T03:04:25;8.00;;;2.60;;
1296;SDS011;641;48.492;9.184;2023-04-25T03:06:51;10.50;;;2.93;;
1296;SDS011;641;48.492;9.184;2023-04-25T03:09:17;10.13;;;2.67;;
1296;SDS011;641;48.492;9.184;2023-04-25T03:11:43;8.40;;;2.60;;
1296;SDS011;641;48.492;9.184;2023-04-25T03:14:09;7.33;;;2.23;;
1296;SDS011;641;48.492;9.184;2023-04-25T03:16:35;8.30;;;2.77;;
1296;SDS011;641;48.492;9.184;2023-04-25T03:19:01;8.97;;;2.50;;
1296;SDS011;641;48.492;9.184;2023-04-25T03:21:28;9.00;;;2.20;;
1296;SDS011;641;48.492;9.184;2023-04-25T03:23:54;8.00;;;2.30;;
1296;SDS011;641;48.492;9.184;2023-04-25T03:26:19;8.97;;;2.50;;
1296;SDS011;641;48.492;9.184;2023-04-25T03:28:45;10.20;;;3.10;;
1296;SDS011;641;48.492;9.184;2023-04-25T03:31:11;8.73;;;2.43;;
1296;SDS011;641;48.492;9.184;2023-04-25T03:33:36;7.33;;;2.30;;
1296;SDS011;641;48.492;9.184;2023-04-25T03:36:02;7.40;;;2.20;;
1296;SDS011;641;48.492;9.184;2023-04-25T03:38:28;9.83;;;2.73;;
1296;SDS011;641;48.492;9.184;2023-04-25T03:40:54;11.30;;;2.67;;
1296;SDS011;641;48.492;9.184;2023-04-25T03:43:21;10.43;;;2.47;;
1296;SDS011;641;48.492;9.184;2023-04-25T03:45:46;9.93;;;1.90;;
1296;SDS011;641;48.492;9.184;2023-04-25T03:48:12;8.83;;;2.50;;
1296;SDS011;641;48.492;9.184;2023-04-25T03:50:37;7.67;;;2.37;;
1296;SDS011;641;48.492;9.184;2023-04-25T03:53:03;10.60;;;1.97;;
1296;SDS011;641;48.492;9.184;2023-04-25T03:55:29;12.20;;;2.50;;
1296;SDS011;641;48.492;9.184;2023-04-25T03:57:54;8.30;;;2.47;;
1296;SDS011;641;48.492;9.184;2023-04-25T04:00:20;10.70;;;2.53;;
1296;SDS011;641;48.492;9.184;2023-04-25T04:02:46;8.53;;;2.23;;
1296;SDS011;641;48.492;9.184;2023-04-25T04:05:12;7.40;;;2.10;;
1296;SDS011;641;48.492;9.184;2023-04-25T04:07:37;8.80;;;2.10;;
1296;SDS011;641;48.492;9.184;2023-04-25T04:10:08;12.00;;;3.10;;
1296;SDS011;641;48.492;9.184;2023-04-25T04:12:34;6.63;;;1.97;;
1296;SDS011;641;48.492;9.184;2023-04-25T04:15:01;7.60;;;2.20;;
1296;SDS011;641;48.492;9.184;2023-04-25T04:17:28;16.83;;;3.23;;
1296;SDS011;641;48.492;9.184;2023-04-25T04:19:54;8.77;;;2.20;;
1296;SDS011;641;48.492;9.184;2023-04-25T04:22:20;14.43;;;2.30;;
1296;SDS011;641;48.492;9.184;2023-04-25T04:24:45;10.20;;;2.77;;
1296;SDS011;641;48.492;9.184;2023-04-25T04:27:11;8.77;;;2.30;;
1296;SDS011;641;48.492;9.184;2023-04-25T04:29:40;7.60;;;2.40;;
1296;SDS011;641;48.492;9.184;2023-04-25T04:32:06;7.73;;;2.13;;
1296;SDS011;641;48.492;9.184;2023-04-25T04:34:34;8.60;;;2.70;;
1296;SDS011;641;48.492;9.184;2023-04-25T04:37:00;7.53;;;2.40;;
1296;SDS011;641;48.492;9.184;2023-04-25T04:39:26;9.00;;;2.20;;
1296;SDS011;641;48.492;9.184;2023-04-25T04:41:53;10.97;;;2.50;;
1296;SDS011;641;48.492;9.184;2023-04-25T04:44:18;8.20;;;2.40;;
1296;SDS011;641;48.492;9.184;2023-04-25T04:46:44;7.23;;;2.43;;
1296;SDS011;641;48.492;9.184;2023-04-25T04:49:11;11.50;;;3.20;;
1296;SDS011;641;48.492;9.184;2023-04-25T04:51:38;8.00;;;2.13;;
1296;SDS011;641;48.492;9.184;2023-04-25T04:54:05;10.67;;;2.33;;
1296;SDS011;641;48.492;9.184;2023-04-25T04:56:31;10.00;;;3.23;;
1296;SDS011;641;48.492;9.184;2023-04-25T04:58:57;12.77;;;3.80;;
1296;SDS011;641;48.492;9.184;2023-04-25T05:01:23;9.30;;;3.10;;
1296;SDS011;641;48.492;9.184;2023-04-25T05:03:49;10.47;;;3.20;;
1296;SDS011;641;48.492;9.184;2023-04-25T05:06:16;9.47;;;3.13;;
1296;SDS011;641;48.492;9.184;2023-04-25T05:08:42;10.97;;;3.07;;
1296;SDS011;641;48.492;9.184;2023-04-25T05:11:09;10.23;;;2.30;;
1296;SDS011;641;48.492;9.184;2023-04-25T05:13:35;12.50;;;2.97;;
1296;SDS011;641;48.492;9.184;2023-04-25T05:16:00;7.60;;;2.43;;
1296;SDS011;641;48.492;9.184;2023-04-25T05:18:26;9.57;;;2.70;;
1296;SDS011;641;48.492;9.184;2023-04-25T05:20:51;8.30;;;2.70;;
1296;SDS011;641;48.492;9.184;2023-04-25T05:23:18;8.07;;;2.70;;
1296;SDS011;641;48.492;9.184;2023-04-25T05:25:43;10.83;;;2.83;;
1296;SDS011;641;48.492;9.184;2023-04-25T05:28:10;9.23;;;3.27;;
1296;SDS011;641;48.492;9.184;2023-04-25T05:30:37;11.33;;;3.50;;
1296;SDS011;641;48.492;9.184;2023-04-25T05:33:02;11.10;;;3.20;;
1296;SDS011;641;48.492;9.184;2023-04-25T05:35:28;11.53;;;3.77;;
1296;SDS011;641;48.492;9.184;2023-04-25T05:37:53;8.10;;;2.37;;
1296;SDS011;641;48.492;9.184;2023-04-25T05:40:19;12.07;;;3.47;;
1296;SDS011;641;48.492;9.184;2023-04-25T05:42:45;8.97;;;2.87;;
1296;SDS011;641;48.492;9.184;2023-04-25T05:45:11;10.60;;;3.10;;
1296;SDS011;641;48.492;9.184;2023-04-25T05:47:36;9.70;;;3.30;;
1296;SDS011;641;48.492;9.184;2023-04-25T05:50:02;10.73;;;3.23;;
1296;SDS011;641;48.492;9.184;2023-04-25T05:52:28;8.37;;;2.53;;
1296;SDS011;641;48.492;9.184;2023-04-25T05:54:53;9.00;;;3.20;;
1296;SDS011;641;48.492;9.184;2023-04-25T05:57:23;8.97;;;2.57;;
1296;SDS011;641;48.492;9.184;2023-04-25T05:59:50;8.10;;;2.40;;
1296;SDS011;641;48.492;9.184;2023-04-25T06:02:17;9.63;;;2.87;;
1296;SDS011;641;48.492;9.184;2023-04-25T06:04:46;8.50;;;2.50;;
1296;SDS011;641;48.492;9.184;2023-04-25T06:07:13;8.13;;;2.43;;
1296;SDS011;641;48.492;9.184;2023-04-25T06:09:38;8.13;;;2.47;;
1296;SDS011;641;48.492;9.184;2023-04-25T06:12:05;9.83;;;2.40;;
1296;SDS011;641;48.492;9.184;2023-04-25T06:14:31;8.43;;;2.60;;
1296;SDS011;641;48.492;9.184;2023-04-25T06:16:56;10.73;;;2.70;;
1296;SDS011;641;48.492;9.184;2023-04-25T06:19:22;7.47;;;2.13;;
1296;SDS011;641;48.492;9.184;2023-04-25T06:21:48;9.67;;;2.73;;
1296;SDS011;641;48.492;9.184;2023-04-25T06:24:13;8.10;;;2.60;;
1296;SDS011;641;48.492;9.184;2023-04-25T06:26:39;10.03;;;2.70;;
1296;SDS011;641;48.492;9.184;2023-04-25T06:29:04;8.30;;;2.47;;
1296;SDS011;641;48.492;9.184;2023-04-25T06:31:30;7.80;;;2.10;;
1296;SDS011;641;48.492;9.184;2023-04-25T06:33:57;7.60;;;2.40;;
1296;SDS011;641;48.492;9.184;2023-04-25T06:36:23;7.27;;;1.83;;
1296;SDS011;641;48.492;9.184;2023-04-25T06:38:51;8.40;;;2.80;;
1296;SDS011;641;48.492;9.184;2023-04-25T06:41:17;10.17;;;2.87;;
1296;SDS011;641;48.492;9.184;2023-04-25T06:43:43;9.43;;;2.37;;
1296;SDS011;641;48.492;9.184;2023-04-25T06:46:09;10.20;;;2.47;;
1296;SDS011;641;48.492;9.184;2023-04-25T06:48:35;7.93;;;2.40;;
1296;SDS011;641;48.492;9.184;2023-04-25T06:51:00;8.03;;;2.20;;
1296;SDS011;641;48.492;9.184;2023-04-25T06:53:26;7.60;;;2.30;;
1296;SDS011;641;48.492;9.184;2023-04-25T06:55:52;9.47;;;2.60;;
1296;SDS011;641;48.492;9.184;2023-04-25T06:58:17;8.20;;;2.50;;
1296;SDS011;641;48.492;9.184;2023-04-25T07:00:43;7.90;;;2.43;;
1296;SDS011;641;48.492;9.184;2023-04-25T07:03:09;9.97;;;3.97;;
1296;SDS011;641;48.492;9.184;2023-04-25T07:05:34;7.43;;;2.00;;
1296;SDS011;641;48.492;9.184;2023-04-25T07:08:00;7.27;;;2.00;;
1296;SDS011;641;48.492;9.184;2023-04-25T07:10:26;6.73;;;1.80;;
1296;SDS011;641;48.492;9.184;2023-04-25T07:12:51;9.93;;;2.13;;
1296;SDS011;641;48.492;9.184;2023-04-25T07:15:17;7.40;;;1.87;;
1296;SDS011;641;48.492;9.184;2023-04-25T07:17:42;6.50;;;1.70;;
1296;SDS011;641;48.492;9.184;2023-04-25T07:20:08;6.80;;;1.67;;
1296;SDS011;641;48.492;9.184;2023-04-25T07:22:35;7.33;;;1.90;;
1296;SDS011;641;48.492;9.184;2023-04-25T07:25:00;6.60;;;1.87;;
1296;SDS011;641;48.492;9.184;2023-04-25T07:27:26;10.10;;;2.80;;
1296;SDS011;641;48.492;9.184;2023-04-25T07:29:52;10.10;;;2.00;;
1296;SDS011;641;48.492;9.184;2023-04-25T07:32:17;7.60;;;2.60;;
1296;SDS011;641;48.492;9.184;2023-04-25T07:34:43;10.70;;;2.40;;
1296;SDS011;641;48.492;9.184;2023-04-25T07:37:09;9.60;;;2.87;;
1296;SDS011;641;48.492;9.184;2023-04-25T07:39:34;9.13;;;2.00;;
1296;SDS011;641;48.492;9.184;2023-04-25T07:42:00;8.43;;;2.33;;
1296;SDS011;641;48.492;9.184;2023-04-25T07:44:27;8.10;;;2.10;;
1296;SDS011;641;48.492;9.184;2023-04-25T07:46:52;7.50;;;2.37;;
1296;SDS011;641;48.492;9.184;2023-04-25T07:49:18;9.97;;;2.60;;
1296;SDS011;641;48.492;9.184;2023-04-25T07:51:44;7.80;;;2.60;;
1296;SDS011;641;48.492;9.184;2023-04-25T07:54:10;10.60;;;3.60;;
1296;SDS011;641;48.492;9.184;2023-04-25T07:56:40;8.37;;;2.90;;
1296;SDS011;641;48.492;9.184;2023-04-25T07:59:06;9.10;;;2.90;;
1296;SDS011;641;48.492;9.184;2023-04-25T08:01:31;8.90;;;2.43;;
1296;SDS011;641;48.492;9.184;2023-04-25T08:03:58;8.00;;;2.60;;
1296;SDS011;641;48.492;9.184;2023-04-25T08:06:24;7.97;;;2.20;;
1296;SDS011;641;48.492;9.184;2023-04-25T08:08:50;9.90;;;3.13;;
1296;SDS011;641;48.492;9.184;2023-04-25T08:11:16;10.00;;;2.50;;
1296;SDS011;641;48.492;9.184;2023-04-25T08:13:41;7.30;;;2.43;;
1296;SDS011;641;48.492;9.184;2023-04-25T08:16:07;9.57;;;3.10;;
1296;SDS011;641;48.492;9.184;2023-04-25T08:18:32;7.90;;;2.63;;
1296;SDS011;641;48.492;9.184;2023-04-25T08:20:58;8.03;;;3.10;;
1296;SDS011;641;48.492;9.184;2023-04-25T08:23:23;7.53;;;2.57;;
1296;SDS011;641;48.492;9.184;2023-04-25T08:25:49;9.30;;;2.47;;
1296;SDS011;641;48.492;9.184;2023-04-25T08:28:14;8.57;;;3.23;;
1296;SDS011;641;48.492;9.184;2023-04-25T08:30:40;8.40;;;2.63;;
1296;SDS011;641;48.492;9.184;2023-04-25T08:33:05;8.53;;;3.23;;
1296;SDS011;641;48.492;9.184;2023-04-25T08:35:31;8.30;;;2.97;;
1296;SDS011;641;48.492;9.184;2023-04-25T08:37:58;18.33;;;5.50;;
1296;SDS011;641;48.492;9.184;2023-04-25T08:40:23;7.43;;;2.30;;
1296;SDS011;641;48.492;9.184;2023-04-25T08:42:55;7.90;;;3.00;;
1296;SDS011;641;48.492;9.184;2023-04-25T08:45:22;8.93;;;2.77;;
1296;SDS011;641;48.492;9.184;2023-04-25T08:47:48;8.67;;;3.70;;
1296;SDS011;641;48.492;9.184;2023-04-25T08:50:17;8.50;;;3.13;;
1296;SDS011;641;48.492;9.184;2023-04-25T08:52:44;9.73;;;2.97;;
1296;SDS011;641;48.492;9.184;2023-04-25T08:55:13;9.67;;;3.47;;
1296;SDS011;641;48.492;9.184;2023-04-25T08:57:40;12.00;;;3.57;;
1296;SDS011;641;48.492;9.184;2023-04-25T09:00:08;9.30;;;3.30;;
1296;SDS011;641;48.492;9.184;2023-04-25T09:02:38;15.23;;;4.53;;
1296;SDS011;641;48.492;9.184;2023-04-25T09:05:04;10.97;;;4.17;;
1296;SDS011;641;48.492;9.184;2023-04-25T09:07:32;8.00;;;3.03;;
1296;SDS011;641;48.492;9.184;2023-04-25T09:09:58;10.93;;;3.60;;
1296;SDS011;641;48.492;9.184;2023-04-25T09:12:28;10.73;;;4.20;;
1296;SDS011;641;48.492;9.184;2023-04-25T09:15:08;8.10;;;2.90;;
1296;SDS011;641;48.492;9.184;2023-04-25T09:17:35;9.63;;;3.70;;
1296;SDS011;641;48.492;9.184;2023-04-25T09:20:14;11.93;;;4.30;;
1296;SDS011;641;48.492;9.184;2023-04-25T09:26:59;12.10;;;3.80;;
1296;SDS011;641;48.492;9.184;2023-04-25T09:29:31;13.20;;;3.67;;
1296;SDS011;641;48.492;9.184;2023-04-25T09:34:40;8.60;;;1.97;;
1296;SDS011;641;48.492;9.184;2023-04-25T09:37:16;13.53;;;2.20;;
1296;SDS011;641;48.492;9.184;2023-04-25T09:39:47;6.17;;;1.20;;
1296;SDS011;641;48.492;9.184;2023-04-25T09:42:15;8.93;;;1.53;;
1296;SDS011;641;48.492;9.184;2023-04-25T09:44:42;9.13;;;2.00;;
1296;SDS011;641;48.492;9.184;2023-04-25T09:47:12;6.87;;;1.40;;
1296;SDS011;641;48.492;9.184;2023-04-25T09:49:43;6.80;;;1.43;;
1296;SDS011;641;48.492;9.184;2023-04-25T09:52:16;6.50;;;1.13;;
1296;SDS011;641;48.492;9.184;2023-04-25T09:54:47;7.60;;;1.30;;
1296;SDS011;641;48.492;9.184;2023-04-25T09:57:20;6.37;;;1.20;;
1296;SDS011;641;48.492;9.184;2023-04-25T09:59:51;9.50;;;1.63;;
1296;SDS011;641;48.492;9.184;2023-04-25T10:02:18;6.67;;;1.00;;
1296;SDS011;641;48.492;9.184;2023-04-25T10:04:49;8.63;;;0.87;;
1296;SDS011;641;48.492;9.184;2023-04-25T10:07:17;6.80;;;1.30;;
1296;SDS011;641;48.492;9.184;2023-04-25T10:09:44;5.90;;;0.83;;
1296;SDS011;641;48.492;9.184;2023-04-25T10:12:12;6.43;;;0.90;;
1296;SDS011;641;48.492;9.184;2023-04-25T10:14:38;6.93;;;1.23;;
1296;SDS011;641;48.492;9.184;2023-04-25T10:17:05;6.17;;;1.27;;
1296;SDS011;641;48.492;9.184;2023-04-25T10:19:31;9.40;;;3.13;;
1296;SDS011;641;48.492;9.184;2023-04-25T10:22:02;12.50;;;3.77;;
1296;SDS011;641;48.492;9.184;2023-04-25T10:24:29;10.50;;;3.40;;
1296;SDS011;641;48.492;9.184;2023-04-25T10:26:57;9.23;;;3.20;;
1296;SDS011;641;48.492;9.184;2023-04-25T10:29:24;7.13;;;2.17;;
1296;SDS011;641;48.492;9.184;2023-04-25T10:31:50;10.20;;;2.37;;
1296;SDS011;641;48.492;9.184;2023-04-25T10:34:16;8.13;;;1.87;;
1296;SDS011;641;48.492;9.184;2023-04-25T10:36:42;6.20;;;1.17;;
1296;SDS011;641;48.492;9.184;2023-04-25T10:39:08;8.70;;;1.63;;
1296;SDS011;641;48.492;9.184;2023-04-25T10:41:48;5.60;;;0.67;;
1296;SDS011;641;48.492;9.184;2023-04-25T10:44:17;8.60;;;1.47;;
1296;SDS011;641;48.492;9.184;2023-04-25T10:46:44;5.93;;;0.80;;
1296;SDS011;641;48.492;9.184;2023-04-25T10:49:11;8.93;;;1.57;;
1296;SDS011;641;48.492;9.184;2023-04-25T10:52:02;16.63;;;3.00;;
1296;SDS011;641;48.492;9.184;2023-04-25T10:54:39;7.20;;;1.30;;
1296;SDS011;641;48.492;9.184;2023-04-25T10:57:05;5.90;;;0.90;;
1296;SDS011;641;48.492;9.184;2023-04-25T10:59:32;6.57;;;1.00;;
1296;SDS011;641;48.492;9.184;2023-04-25T11:01:58;5.50;;;0.70;;
1296;SDS011;641;48.492;9.184;2023-04-25T11:04:28;5.60;;;0.70;;
1296;SDS011;641;48.492;9.184;2023-04-25T11:09:20;12.23;;;1.10;;
1296;SDS011;641;48.492;9.184;2023-04-25T11:11:55;5.90;;;0.60;;
1296;SDS011;641;48.492;9.184;2023-04-25T11:14:21;5.37;;;0.60;;
1296;SDS011;641;48.492;9.184;2023-04-25T11:16:52;5.40;;;0.50;;
1296;SDS011;641;48.492;9.184;2023-04-25T11:19:20;5.40;;;0.50;;
1296;SDS011;641;48.492;9.184;2023-04-25T11:21:45;6.67;;;0.80;;
1296;SDS011;641;48.492;9.184;2023-04-25T11:24:11;5.50;;;0.43;;
1296;SDS011;641;48.492;9.184;2023-04-25T11:26:40;5.30;;;0.40;;
1296;SDS011;641;48.492;9.184;2023-04-25T11:29:09;5.47;;;0.57;;
1296;SDS011;641;48.492;9.184;2023-04-25T11:31:35;6.97;;;1.00;;
1296;SDS011;641;48.492;9.184;2023-04-25T11:34:01;5.80;;;0.67;;
1296;SDS011;641;48.492;9.184;2023-04-25T11:36:27;5.90;;;0.80;;
1296;SDS011;641;48.492;9.184;2023-04-25T11:38:56;5.43;;;0.50;;
1296;SDS011;641;48.492;9.184;2023-04-25T11:41:22;5.33;;;0.40;;
1296;SDS011;641;48.492;9.184;2023-04-25T11:43:48;5.60;;;0.40;;
1296;SDS011;641;48.492;9.184;2023-04-25T11:46:16;5.70;;;0.60;;
1296;SDS011;641;48.492;9.184;2023-04-25T11:48:44;5.30;;;0.40;;
1296;SDS011;641;48.492;9.184;2023-04-25T11:51:10;5.50;;;0.50;;
1296;SDS011;641;48.492;9.184;2023-04-25T11:53:36;5.50;;;0.57;;
1296;SDS011;641;48.492;9.184;2023-04-25T11:56:02;5.80;;;0.60;;
1296;SDS011;641;48.492;9.184;2023-04-25T11:58:53;6.47;;;0.70;;
1296;SDS011;641;48.492;9.184;2023-04-25T12:01:29;6.90;;;0.80;;
1296;SDS011;641;48.492;9.184;2023-04-25T12:03:56;5.33;;;0.40;;
1296;SDS011;641;48.492;9.184;2023-04-25T12:06:25;5.33;;;0.50;;
1296;SDS011;641;48.492;9.184;2023-04-25T12:09:06;5.20;;;0.40;;
1296;SDS011;641;48.492;9.184;2023-04-25T12:11:32;5.27;;;0.47;;
1296;SDS011;641;48.492;9.184;2023-04-25T12:14:05;5.30;;;0.50;;
1296;SDS011;641;48.492;9.184;2023-04-25T12:16:44;5.40;;;0.60;;
1296;SDS011;641;48.492;9.184;2023-04-25T12:19:13;5.43;;;0.50;;
1296;SDS011;641;48.492;9.184;2023-04-25T12:21:40;5.27;;;0.40;;
1296;SDS011;641;48.492;9.184;2023-04-25T12:24:12;7.30;;;0.80;;
1296;SDS011;641;48.492;9.184;2023-04-25T12:27:13;5.40;;;0.60;;
1296;SDS011;641;48.492;9.184;2023-04-25T12:29:33;5.40;;;0.50;;
1296;SDS011;641;48.492;9.184;2023-04-25T12:31:59;5.60;;;0.50;;
1296;SDS011;641;48.492;9.184;2023-04-25T12:34:28;5.60;;;0.70;;
1296;SDS011;641;48.492;9.184;2023-04-25T12:36:56;5.70;;;0.60;;
1296;SDS011;641;48.492;9.184;2023-04-25T12:39:25;5.70;;;0.63;;
1296;SDS011;641;48.492;9.184;2023-04-25T12:41:51;7.50;;;1.00;;
1296;SDS011;641;48.492;9.184;2023-04-25T12:44:19;5.63;;;0.90;;
1296;SDS011;641;48.492;9.184;2023-04-25T12:46:45;5.80;;;0.70;;
1296;SDS011;641;48.492;9.184;2023-04-25T12:49:11;5.80;;;0.70;;
1296;SDS011;641;48.492;9.184;2023-04-25T12:51:37;5.53;;;0.70;;
1296;SDS011;641;48.492;9.184;2023-04-25T12:54:04;6.00;;;1.00;;
1296;SDS011;641;48.492;9.184;2023-04-25T12:56:31;5.60;;;0.80;;
1296;SDS011;641;48.492;9.184;2023-04-25T12:58:57;7.80;;;0.90;;
1296;SDS011;641;48.492;9.184;2023-04-25T13:01:23;5.80;;;0.80;;
1296;SDS011;641;48.492;9.184;2023-04-25T13:03:49;5.93;;;0.80;;
1296;SDS011;641;48.492;9.184;2023-04-25T13:06:16;5.97;;;0.83;;
1296;SDS011;641;48.492;9.184;2023-04-25T13:08:42;5.50;;;0.60;;
1296;SDS011;641;48.492;9.184;2023-04-25T13:11:08;5.70;;;0.70;;
1296;SDS011;641;48.492;9.184;2023-04-25T13:13:34;5.50;;;0.73;;
1296;SDS011;641;48.492;9.184;2023-04-25T13:16:01;5.67;;;0.73;;
1296;SDS011;641;48.492;9.184;2023-04-25T13:18:28;6.37;;;0.73;;
1296;SDS011;641;48.492;9.184;2023-04-25T13:20:54;6.57;;;1.20;;
1296;SDS011;641;48.492;9.184;2023-04-25T13:23:20;5.70;;;0.77;;
1296;SDS011;641;48.492;9.184;2023-04-25T13:25:46;6.60;;;1.00;;
1296;SDS011;641;48.492;9.184;2023-04-25T13:28:12;6.00;;;0.90;;
1296;SDS011;641;48.492;9.184;2023-04-25T13:30:39;5.50;;;0.63;;
1296;SDS011;641;48.492;9.184;2023-04-25T13:33:05;6.00;;;0.90;;
1296;SDS011;641;48.492;9.184;2023-04-25T13:35:32;5.77;;;0.80;;
1296;SDS011;641;48.492;9.184;2023-04-25T13:37:59;6.57;;;1.30;;
1296;SDS011;641;48.492;9.184;2023-04-25T13:40:25;6.23;;;1.00;;
1296;SDS011;641;48.492;9.184;2023-04-25T13:42:51;7.40;;;1.00;;
1296;SDS011;641;48.492;9.184;2023-04-25T13:45:18;6.20;;;1.03;;
1296;SDS011;641;48.492;9.184;2023-04-25T13:47:44;6.00;;;1.20;;
1296;SDS011;641;48.492;9.184;2023-04-25T13:50:10;8.00;;;1.27;;
1296;SDS011;641;48.492;9.184;2023-04-25T13:52:36;7.10;;;1.37;;
1296;SDS011;641;48.492;9.184;2023-04-25T13:55:02;6.10;;;1.00;;
1296;SDS011;641;48.492;9.184;2023-04-25T13:57:30;7.10;;;1.90;;
1296;SDS011;641;48.492;9.184;2023-04-25T13:59:56;7.57;;;3.10;;
1296;SDS011;641;48.492;9.184;2023-04-25T14:02:22;9.63;;;4.43;;
1296;SDS011;641;48.492;9.184;2023-04-25T14:04:48;8.57;;;3.20;;
1296;SDS011;641;48.492;9.184;2023-04-25T14:07:14;7.57;;;1.60;;
1296;SDS011;641;48.492;9.184;2023-04-25T14:09:41;7.10;;;2.20;;
1296;SDS011;641;48.492;9.184;2023-04-25T14:12:07;6.33;;;1.60;;
1296;SDS011;641;48.492;9.184;2023-04-25T14:14:33;7.00;;;1.80;;
1296;SDS011;641;48.492;9.184;2023-04-25T14:16:59;6.80;;;1.60;;
1296;SDS011;641;48.492;9.184;2023-04-25T14:19:25;7.23;;;2.27;;
1296;SDS011;641;48.492;9.184;2023-04-25T14:21:51;6.87;;;1.70;;
1296;SDS011;641;48.492;9.184;2023-04-25T14:24:17;7.20;;;1.70;;
1296;SDS011;641;48.492;9.184;2023-04-25T14:26:43;7.10;;;2.03;;
1296;SDS011;641;48.492;9.184;2023-04-25T14:29:09;6.40;;;1.60;;
1296;SDS011;641;48.492;9.184;2023-04-25T14:31:37;7.13;;;1.63;;
1296;SDS011;641;48.492;9.184;2023-04-25T14:34:04;7.07;;;2.20;;
1296;SDS011;641;48.492;9.184;2023-04-25T14:36:30;10.17;;;2.87;;
1296;SDS011;641;48.492;9.184;2023-04-25T14:38:57;7.90;;;1.70;;
1296;SDS011;641;48.492;9.184;2023-04-25T14:41:23;9.00;;;2.10;;
1296;SDS011;641;48.492;9.184;2023-04-25T14:43:49;7.00;;;1.90;;
1296;SDS011;641;48.492;9.184;2023-04-25T14:46:16;7.23;;;1.90;;
1296;SDS011;641;48.492;9.184;2023-04-25T14:48:42;6.90;;;1.80;;
1296;SDS011;641;48.492;9.184;2023-04-25T14:51:08;7.90;;;2.50;;
1296;SDS011;641;48.492;9.184;2023-04-25T14:53:34;7.83;;;2.30;;
1296;SDS011;641;48.492;9.184;2023-04-25T14:56:00;7.80;;;2.50;;
1296;SDS011;641;48.492;9.184;2023-04-25T14:58:26;9.67;;;2.20;;
1296;SDS011;641;48.492;9.184;2023-04-25T15:00:52;8.10;;;2.00;;
1296;SDS011;641;48.492;9.184;2023-04-25T15:03:18;7.10;;;2.20;;
1296;SDS011;641;48.492;9.184;2023-04-25T15:05:44;10.07;;;1.93;;
1296;SDS011;641;48.492;9.184;2023-04-25T15:08:10;7.50;;;2.37;;
1296;SDS011;641;48.492;9.184;2023-04-25T15:10:36;7.20;;;2.17;;
1296;SDS011;641;48.492;9.184;2023-04-25T15:13:02;7.80;;;2.67;;
1296;SDS011;641;48.492;9.184;2023-04-25T15:15:29;7.67;;;2.57;;
1296;SDS011;641;48.492;9.184;2023-04-25T15:17:55;11.33;;;3.30;;
1296;SDS011;641;48.492;9.184;2023-04-25T15:20:21;7.60;;;2.80;;
1296;SDS011;641;48.492;9.184;2023-04-25T15:22:47;8.70;;;3.17;;
1296;SDS011;641;48.492;9.184;2023-04-25T15:25:14;8.93;;;3.20;;
1296;SDS011;641;48.492;9.184;2023-04-25T15:27:42;8.90;;;3.27;;
1296;SDS011;641;48.492;9.184;2023-04-25T15:30:10;8.93;;;3.60;;
1296;SDS011;641;48.492;9.184;2023-04-25T15:32:37;9.00;;;3.53;;
1296;SDS011;641;48.492;9.184;2023-04-25T15:35:04;9.80;;;3.83;;